PWSweather.com
Personal Weather Stations
Station Observations
KMNHACKE9
Hiram Hill, Hiram Twp., Hackensack, MN 56452

Hiram Hill, Hiram Twp.Hackensack, MN 56452

Lat: 46.934228, Lon: -94.585965

Elevation: 1414

Station Type: Rainwise MK-III-LR

Latest ConditionsUpdated 3:50:00 PM CDT Wednesday, Apr 24, 2019
Currently Today's Max Today's Min Today's Average
Temperature 75.0°F23.9°C 75.4°F24.1°C 53.5°F11.9°C 60.3°F15.7°C
Dew Point 40.6°F4.8°C 42.6°F5.9°C 35.4°F1.9°C 38.5°F3.6°C
Winds 5.4 mph NW8.7 kmh NW 7.9 mph -12.7 kmh - - 5.0 mph 8.0 kmh
Wind Gusts 8.9 mph14.3 kmh 14.8 mph23.8 kmh - -
Humidity 29% 58% 27% 45%
Pressure 29.66 in1004.4 mb 29.87 in1011.5 mb 29.66 in1004.4 mb -
Hour Temp Dew Point Humidity Winds Wind Gusts Pressure Precip Precip Rate Daily Precip Total
03:50 PM 75.0°F23.9°C 40.6°F4.8°C 29% 5.4 mph NW8.7 kmh NW 8.9 mph14.3 kmh 29.66 in1004.4 mb 0.00 in0.0 mm 0.00 in0.0 mm 0.00 in0.0 mm
03:45 PM 74.7°F23.7°C 39.4°F4.1°C 28% 4.3 mph WSW6.9 kmh WSW 7.8 mph12.6 kmh 29.66 in1004.4 mb 0.00 in0.0 mm 0.00 in0.0 mm 0.00 in0.0 mm
03:40 PM 74.6°F23.7°C 40.2°F4.6°C 29% 4.7 mph W7.6 kmh W 7.3 mph11.7 kmh 29.66 in1004.4 mb 0.00 in0.0 mm 0.00 in0.0 mm 0.00 in0.0 mm
03:35 PM 74.9°F23.8°C 39.6°F4.2°C 28% 5.0 mph WSW8.0 kmh WSW 8.1 mph13.0 kmh 29.66 in1004.4 mb 0.00 in0.0 mm 0.00 in0.0 mm 0.00 in0.0 mm
03:30 PM 74.7°F23.7°C 40.3°F4.6°C 29% 4.5 mph WSW7.2 kmh WSW 10.4 mph16.7 kmh 29.66 in1004.4 mb 0.00 in0.0 mm 0.00 in0.0 mm 0.00 in0.0 mm
03:25 PM 74.7°F23.7°C 39.4°F4.1°C 28% 4.8 mph WNW7.7 kmh WNW 7.8 mph12.6 kmh 29.66 in1004.4 mb 0.00 in0.0 mm 0.00 in0.0 mm 0.00 in0.0 mm
03:20 PM 74.5°F23.6°C 39.2°F4.0°C 28% 5.4 mph WSW8.7 kmh WSW 8.1 mph13.0 kmh 29.66 in1004.4 mb 0.00 in0.0 mm 0.00 in0.0 mm 0.00 in0.0 mm
03:15 PM 74.4°F23.6°C 39.2°F4.0°C 28% 5.8 mph SW9.3 kmh SW 8.7 mph14.0 kmh 29.66 in1004.4 mb 0.00 in0.0 mm 0.00 in0.0 mm 0.00 in0.0 mm
03:10 PM 74.0°F23.3°C 38.8°F3.8°C 28% 5.7 mph WSW9.2 kmh WSW 9.2 mph14.8 kmh 29.67 in1004.7 mb 0.00 in0.0 mm 0.00 in0.0 mm 0.00 in0.0 mm
03:05 PM 74.2°F23.4°C 38.1°F3.4°C 27% 6.9 mph NW11.1 kmh NW 10.9 mph17.5 kmh 29.66 in1004.4 mb 0.00 in0.0 mm 0.00 in0.0 mm 0.00 in0.0 mm
03:00 PM 74.2°F23.4°C 39.0°F3.9°C 28% 6.5 mph WSW10.5 kmh WSW 10.7 mph17.2 kmh 29.66 in1004.4 mb 0.00 in0.0 mm 0.00 in0.0 mm 0.00 in0.0 mm
02:55 PM 74.2°F23.4°C 39.0°F3.9°C 28% 4.8 mph WNW7.7 kmh WNW 8.1 mph13.0 kmh 29.66 in1004.4 mb 0.00 in0.0 mm 0.00 in0.0 mm 0.00 in0.0 mm
02:50 PM 75.0°F23.9°C 39.7°F4.3°C 28% 5.2 mph WNW8.4 kmh WNW 8.6 mph13.8 kmh 29.66 in1004.4 mb 0.00 in0.0 mm 0.00 in0.0 mm 0.00 in0.0 mm
02:45 PM 75.4°F24.1°C 40.0°F4.4°C 28% 3.5 mph WSW5.6 kmh WSW 5.9 mph9.5 kmh 29.66 in1004.4 mb 0.00 in0.0 mm 0.00 in0.0 mm 0.00 in0.0 mm
02:40 PM 75.0°F23.9°C 39.7°F4.3°C 28% 3.0 mph WSW4.8 kmh WSW 5.4 mph8.7 kmh 29.66 in1004.4 mb 0.00 in0.0 mm 0.00 in0.0 mm 0.00 in0.0 mm
02:35 PM 74.7°F23.7°C 40.3°F4.6°C 29% 6.1 mph SW9.8 kmh SW 11.3 mph18.2 kmh 29.67 in1004.7 mb 0.00 in0.0 mm 0.00 in0.0 mm 0.00 in0.0 mm
02:30 PM 74.3°F23.5°C 40.8°F4.9°C 30% 5.4 mph WSW8.7 kmh WSW 9.5 mph15.3 kmh 29.67 in1004.7 mb 0.00 in0.0 mm 0.00 in0.0 mm 0.00 in0.0 mm
02:25 PM 74.0°F23.3°C 40.6°F4.8°C 30% 4.0 mph SW6.4 kmh SW 6.4 mph10.3 kmh 29.67 in1004.7 mb 0.00 in0.0 mm 0.00 in0.0 mm 0.00 in0.0 mm
02:20 PM 73.7°F23.2°C 40.3°F4.6°C 30% 5.8 mph WSW9.3 kmh WSW 9.6 mph15.4 kmh 29.67 in1004.7 mb 0.00 in0.0 mm 0.00 in0.0 mm 0.00 in0.0 mm
02:15 PM 73.8°F23.2°C 40.4°F4.7°C 30% 5.4 mph SW8.7 kmh SW 9.9 mph15.9 kmh 29.67 in1004.7 mb 0.00 in0.0 mm 0.00 in0.0 mm 0.00 in0.0 mm
02:10 PM 73.7°F23.2°C 41.2°F5.1°C 31% 5.1 mph WSW8.2 kmh WSW 8.2 mph13.2 kmh 29.67 in1004.7 mb 0.00 in0.0 mm 0.00 in0.0 mm 0.00 in0.0 mm
02:05 PM 73.2°F22.9°C 41.6°F5.3°C 32% 3.9 mph WSW6.3 kmh WSW 6.7 mph10.8 kmh 29.67 in1004.7 mb 0.00 in0.0 mm 0.00 in0.0 mm 0.00 in0.0 mm
02:00 PM 72.7°F22.6°C 41.9°F5.5°C 33% 4.5 mph SW7.2 kmh SW 8.5 mph13.7 kmh 29.67 in1004.7 mb 0.00 in0.0 mm 0.00 in0.0 mm 0.00 in0.0 mm
01:55 PM 72.4°F22.4°C 41.7°F5.4°C 33% 4.6 mph SW7.4 kmh SW 8.0 mph12.9 kmh 29.67 in1004.7 mb 0.00 in0.0 mm 0.00 in0.0 mm 0.00 in0.0 mm
01:50 PM 72.2°F22.3°C 40.7°F4.8°C 32% 3.7 mph WSW6.0 kmh WSW 6.1 mph9.8 kmh 29.67 in1004.7 mb 0.00 in0.0 mm 0.00 in0.0 mm 0.00 in0.0 mm
01:45 PM 72.2°F22.3°C 41.5°F5.3°C 33% 5.7 mph SW9.2 kmh SW 10.1 mph16.3 kmh 29.68 in1005.1 mb 0.00 in0.0 mm 0.00 in0.0 mm 0.00 in0.0 mm
01:40 PM 71.9°F22.2°C 41.2°F5.1°C 33% 5.0 mph SW8.0 kmh SW 8.6 mph13.8 kmh 29.68 in1005.1 mb 0.00 in0.0 mm 0.00 in0.0 mm 0.00 in0.0 mm
01:35 PM 71.9°F22.2°C 42.0°F5.6°C 34% 5.0 mph SW8.0 kmh SW 8.2 mph13.2 kmh 29.68 in1005.1 mb 0.00 in0.0 mm 0.00 in0.0 mm 0.00 in0.0 mm
01:30 PM 71.7°F22.1°C 41.8°F5.4°C 34% 4.3 mph WSW6.9 kmh WSW 6.6 mph10.6 kmh 29.68 in1005.1 mb 0.00 in0.0 mm 0.00 in0.0 mm 0.00 in0.0 mm
01:25 PM 71.4°F21.9°C 42.3°F5.7°C 35% 4.1 mph SW6.6 kmh SW 7.9 mph12.7 kmh 29.68 in1005.1 mb 0.00 in0.0 mm 0.00 in0.0 mm 0.00 in0.0 mm
01:20 PM 71.0°F21.7°C 42.0°F5.6°C 35% 3.9 mph SW6.3 kmh SW 8.1 mph13.0 kmh 29.68 in1005.1 mb 0.00 in0.0 mm 0.00 in0.0 mm 0.00 in0.0 mm
01:15 PM 70.7°F21.5°C 42.4°F5.8°C 36% 4.2 mph SW6.8 kmh SW 7.1 mph11.4 kmh 29.69 in1005.4 mb 0.00 in0.0 mm 0.00 in0.0 mm 0.00 in0.0 mm
01:10 PM 70.9°F21.6°C 42.6°F5.9°C 36% 4.3 mph WSW6.9 kmh WSW 7.0 mph11.3 kmh 29.69 in1005.4 mb 0.00 in0.0 mm 0.00 in0.0 mm 0.00 in0.0 mm
01:05 PM 70.6°F21.4°C 41.6°F5.3°C 35% 4.0 mph W6.4 kmh W 7.0 mph11.3 kmh 29.69 in1005.4 mb 0.00 in0.0 mm 0.00 in0.0 mm 0.00 in0.0 mm
01:00 PM 70.2°F21.2°C 41.3°F5.2°C 35% 3.3 mph WSW5.3 kmh WSW 6.1 mph9.8 kmh 29.69 in1005.4 mb 0.00 in0.0 mm 0.00 in0.0 mm 0.00 in0.0 mm
12:55 PM 70.0°F21.1°C 41.8°F5.4°C 36% 4.1 mph SW6.6 kmh SW 8.4 mph13.5 kmh 29.69 in1005.4 mb 0.00 in0.0 mm 0.00 in0.0 mm 0.00 in0.0 mm
12:50 PM 69.7°F20.9°C 40.8°F4.9°C 35% 4.5 mph SW7.2 kmh SW 8.0 mph12.9 kmh 29.69 in1005.4 mb 0.00 in0.0 mm 0.00 in0.0 mm 0.00 in0.0 mm
12:45 PM 69.5°F20.8°C 42.1°F5.6°C 37% 4.9 mph SW7.9 kmh SW 8.5 mph13.7 kmh 29.69 in1005.4 mb 0.00 in0.0 mm 0.00 in0.0 mm 0.00 in0.0 mm
12:40 PM 69.1°F20.6°C 41.7°F5.4°C 37% 4.7 mph SW7.6 kmh SW 7.7 mph12.4 kmh 29.70 in1005.8 mb 0.00 in0.0 mm 0.00 in0.0 mm 0.00 in0.0 mm
12:35 PM 68.8°F20.4°C 42.2°F5.7°C 38% 3.6 mph WSW5.8 kmh WSW 5.4 mph8.7 kmh 29.70 in1005.8 mb 0.00 in0.0 mm 0.00 in0.0 mm 0.00 in0.0 mm
12:30 PM 68.2°F20.1°C 41.6°F5.3°C 38% 3.8 mph WSW6.1 kmh WSW 5.5 mph8.9 kmh 29.70 in1005.8 mb 0.00 in0.0 mm 0.00 in0.0 mm 0.00 in0.0 mm
12:25 PM 67.7°F19.8°C 41.2°F5.1°C 38% 4.4 mph WSW7.1 kmh WSW 7.7 mph12.4 kmh 29.70 in1005.8 mb 0.00 in0.0 mm 0.00 in0.0 mm 0.00 in0.0 mm
12:20 PM 67.7°F19.8°C 40.5°F4.7°C 37% 5.1 mph WSW8.2 kmh WSW 8.0 mph12.9 kmh 29.70 in1005.8 mb 0.00 in0.0 mm 0.00 in0.0 mm 0.00 in0.0 mm
12:15 PM 67.5°F19.7°C 40.3°F4.6°C 37% 4.3 mph SW6.9 kmh SW 8.4 mph13.5 kmh 29.69 in1005.4 mb 0.00 in0.0 mm 0.00 in0.0 mm 0.00 in0.0 mm
12:10 PM 67.4°F19.7°C 41.6°F5.3°C 39% 3.7 mph W6.0 kmh W 6.6 mph10.6 kmh 29.69 in1005.4 mb 0.00 in0.0 mm 0.00 in0.0 mm 0.00 in0.0 mm
12:05 PM 67.2°F19.6°C 41.4°F5.2°C 39% 5.3 mph W8.5 kmh W 9.3 mph15.0 kmh 29.70 in1005.8 mb 0.00 in0.0 mm 0.00 in0.0 mm 0.00 in0.0 mm
12:00 PM 67.5°F19.7°C 40.3°F4.6°C 37% 5.2 mph SW8.4 kmh SW 9.3 mph15.0 kmh 29.70 in1005.8 mb 0.00 in0.0 mm 0.00 in0.0 mm 0.00 in0.0 mm
11:55 AM 67.5°F19.7°C 41.0°F5.0°C 38% 4.6 mph WSW7.4 kmh WSW 8.4 mph13.5 kmh 29.70 in1005.8 mb 0.00 in0.0 mm 0.00 in0.0 mm 0.00 in0.0 mm
11:50 AM 67.5°F19.7°C 41.7°F5.4°C 39% 5.4 mph WSW8.7 kmh WSW 8.3 mph13.4 kmh 29.70 in1005.8 mb 0.00 in0.0 mm 0.00 in0.0 mm 0.00 in0.0 mm
11:45 AM 67.2°F19.6°C 41.4°F5.2°C 39% 5.7 mph WSW9.2 kmh WSW 8.8 mph14.2 kmh 29.70 in1005.8 mb 0.00 in0.0 mm 0.00 in0.0 mm 0.00 in0.0 mm
11:40 AM 66.7°F19.3°C 41.0°F5.0°C 39% 3.1 mph WSW5.0 kmh WSW 6.3 mph10.1 kmh 29.70 in1005.8 mb 0.00 in0.0 mm 0.00 in0.0 mm 0.00 in0.0 mm
11:35 AM 66.5°F19.2°C 40.8°F4.9°C 39% 4.1 mph WSW6.6 kmh WSW 7.1 mph11.4 kmh 29.70 in1005.8 mb 0.00 in0.0 mm 0.00 in0.0 mm 0.00 in0.0 mm
11:30 AM 66.2°F19.0°C 40.5°F4.7°C 39% 2.8 mph WSW4.5 kmh WSW 5.5 mph8.9 kmh 29.71 in1006.1 mb 0.00 in0.0 mm 0.00 in0.0 mm 0.00 in0.0 mm
11:25 AM 65.9°F18.8°C 40.9°F4.9°C 40% 3.1 mph WSW5.0 kmh WSW 5.7 mph9.2 kmh 29.71 in1006.1 mb 0.00 in0.0 mm 0.00 in0.0 mm 0.00 in0.0 mm
11:20 AM 65.7°F18.7°C 40.1°F4.5°C 39% 3.9 mph WSW6.3 kmh WSW 7.1 mph11.4 kmh 29.71 in1006.1 mb 0.00 in0.0 mm 0.00 in0.0 mm 0.00 in0.0 mm
11:15 AM 65.1°F18.4°C 40.8°F4.9°C 41% 3.3 mph SW5.3 kmh SW 6.7 mph10.8 kmh 29.71 in1006.1 mb 0.00 in0.0 mm 0.00 in0.0 mm 0.00 in0.0 mm
11:10 AM 64.5°F18.1°C 40.3°F4.6°C 41% 4.5 mph SW7.2 kmh SW 8.3 mph13.4 kmh 29.71 in1006.1 mb 0.00 in0.0 mm 0.00 in0.0 mm 0.00 in0.0 mm
11:05 AM 63.9°F17.7°C 39.7°F4.3°C 41% 3.9 mph SSW6.3 kmh SSW 9.3 mph15.0 kmh 29.71 in1006.1 mb 0.00 in0.0 mm 0.00 in0.0 mm 0.00 in0.0 mm
11:00 AM 63.7°F17.6°C 39.6°F4.2°C 41% 5.3 mph SW8.5 kmh SW 10.1 mph16.3 kmh 29.71 in1006.1 mb 0.00 in0.0 mm 0.00 in0.0 mm 0.00 in0.0 mm
10:55 AM 63.5°F17.5°C 39.4°F4.1°C 41% 6.1 mph SW9.8 kmh SW 10.3 mph16.6 kmh 29.71 in1006.1 mb 0.00 in0.0 mm 0.00 in0.0 mm 0.00 in0.0 mm
10:50 AM 63.3°F17.4°C 39.2°F4.0°C 41% 5.3 mph SW8.5 kmh SW 9.3 mph15.0 kmh 29.71 in1006.1 mb 0.00 in0.0 mm 0.00 in0.0 mm 0.00 in0.0 mm
10:45 AM 63.1°F17.3°C 39.6°F4.2°C 42% 5.4 mph SW8.7 kmh SW 11.2 mph18.0 kmh 29.71 in1006.1 mb 0.00 in0.0 mm 0.00 in0.0 mm 0.00 in0.0 mm
10:40 AM 63.0°F17.2°C 39.5°F4.2°C 42% 3.5 mph SW5.6 kmh SW 7.6 mph12.2 kmh 29.71 in1006.1 mb 0.00 in0.0 mm 0.00 in0.0 mm 0.00 in0.0 mm
10:35 AM 62.7°F17.1°C 38.7°F3.7°C 41% 5.7 mph SSW9.2 kmh SSW 12.8 mph20.6 kmh 29.71 in1006.1 mb 0.00 in0.0 mm 0.00 in0.0 mm 0.00 in0.0 mm
10:30 AM 62.2°F16.8°C 39.4°F4.1°C 43% 4.4 mph SSW7.1 kmh SSW 7.3 mph11.7 kmh 29.71 in1006.1 mb 0.00 in0.0 mm 0.00 in0.0 mm 0.00 in0.0 mm
10:25 AM 61.7°F16.5°C 38.4°F3.6°C 42% 4.8 mph SW7.7 kmh SW 9.2 mph14.8 kmh 29.71 in1006.1 mb 0.00 in0.0 mm 0.00 in0.0 mm 0.00 in0.0 mm
10:20 AM 61.1°F16.2°C 38.4°F3.6°C 43% 4.5 mph SW7.2 kmh SW 8.5 mph13.7 kmh 29.72 in1006.4 mb 0.00 in0.0 mm 0.00 in0.0 mm 0.00 in0.0 mm
10:15 AM 60.7°F15.9°C 38.7°F3.7°C 44% 5.4 mph SW8.7 kmh SW 10.9 mph17.5 kmh 29.72 in1006.4 mb 0.00 in0.0 mm 0.00 in0.0 mm 0.00 in0.0 mm
10:10 AM 60.3°F15.7°C 37.7°F3.2°C 43% 4.1 mph SW6.6 kmh SW 7.2 mph11.6 kmh 29.72 in1006.4 mb 0.00 in0.0 mm 0.00 in0.0 mm 0.00 in0.0 mm
10:05 AM 60.1°F15.6°C 38.1°F3.4°C 44% 7.2 mph SSW11.6 kmh SSW 13.0 mph20.9 kmh 29.72 in1006.4 mb 0.00 in0.0 mm 0.00 in0.0 mm 0.00 in0.0 mm
10:00 AM 60.0°F15.6°C 37.4°F3.0°C 43% 5.8 mph SSW9.3 kmh SSW 12.3 mph19.8 kmh 29.72 in1006.4 mb 0.00 in0.0 mm 0.00 in0.0 mm 0.00 in0.0 mm
09:55 AM 59.5°F15.3°C 37.6°F3.1°C 44% 5.9 mph SSW9.5 kmh SSW 9.9 mph15.9 kmh 29.72 in1006.4 mb 0.00 in0.0 mm 0.00 in0.0 mm 0.00 in0.0 mm
09:50 AM 58.8°F14.9°C 37.5°F3.1°C 45% 6.3 mph S10.1 kmh S 10.7 mph17.2 kmh 29.72 in1006.4 mb 0.00 in0.0 mm 0.00 in0.0 mm 0.00 in0.0 mm
09:45 AM 57.9°F14.4°C 37.2°F2.9°C 46% 4.9 mph S7.9 kmh S 8.6 mph13.8 kmh 29.73 in1006.8 mb 0.00 in0.0 mm 0.00 in0.0 mm 0.00 in0.0 mm
09:40 AM 57.2°F14.0°C 36.6°F2.6°C 46% 4.8 mph SW7.7 kmh SW 8.4 mph13.5 kmh 29.73 in1006.8 mb 0.00 in0.0 mm 0.00 in0.0 mm 0.00 in0.0 mm
09:35 AM 56.7°F13.7°C 36.2°F2.3°C 46% 5.6 mph SSW9.0 kmh SSW 10.4 mph16.7 kmh 29.73 in1006.8 mb 0.00 in0.0 mm 0.00 in0.0 mm 0.00 in0.0 mm
09:30 AM 56.3°F13.5°C 36.9°F2.7°C 48% 5.8 mph S9.3 kmh S 9.4 mph15.1 kmh 29.74 in1007.1 mb 0.00 in0.0 mm 0.00 in0.0 mm 0.00 in0.0 mm
09:25 AM 55.8°F13.2°C 36.4°F2.4°C 48% 4.9 mph SSW7.9 kmh SSW 9.0 mph14.5 kmh 29.73 in1006.8 mb 0.00 in0.0 mm 0.00 in0.0 mm 0.00 in0.0 mm
09:20 AM 55.5°F13.1°C 36.1°F2.3°C 48% 4.3 mph S6.9 kmh S 8.2 mph13.2 kmh 29.73 in1006.8 mb 0.00 in0.0 mm 0.00 in0.0 mm 0.00 in0.0 mm
09:15 AM 55.3°F12.9°C 36.5°F2.5°C 49% 4.1 mph SSW6.6 kmh SSW 7.7 mph12.4 kmh 29.74 in1007.1 mb 0.00 in0.0 mm 0.00 in0.0 mm 0.00 in0.0 mm
09:10 AM 55.3°F12.9°C 35.9°F2.2°C 48% 4.0 mph SW6.4 kmh SW 7.3 mph11.7 kmh 29.74 in1007.1 mb 0.00 in0.0 mm 0.00 in0.0 mm 0.00 in0.0 mm
09:05 AM 55.2°F12.9°C 35.9°F2.2°C 48% 4.3 mph SW6.9 kmh SW 8.5 mph13.7 kmh 29.74 in1007.1 mb 0.00 in0.0 mm 0.00 in0.0 mm 0.00 in0.0 mm
09:00 AM 55.0°F12.8°C 36.2°F2.3°C 49% 4.6 mph S7.4 kmh S 8.3 mph13.4 kmh 29.74 in1007.1 mb 0.00 in0.0 mm 0.00 in0.0 mm 0.00 in0.0 mm
08:55 AM 54.7°F12.6°C 36.4°F2.4°C 50% 4.6 mph SW7.4 kmh SW 9.0 mph14.5 kmh 29.74 in1007.1 mb 0.00 in0.0 mm 0.00 in0.0 mm 0.00 in0.0 mm
08:50 AM 54.5°F12.5°C 35.7°F2.1°C 49% 4.8 mph SW7.7 kmh SW 8.3 mph13.4 kmh 29.75 in1007.5 mb 0.00 in0.0 mm 0.00 in0.0 mm 0.00 in0.0 mm
08:45 AM 54.3°F12.4°C 36.1°F2.3°C 50% 4.9 mph SW7.9 kmh SW 10.7 mph17.2 kmh 29.75 in1007.5 mb 0.00 in0.0 mm 0.00 in0.0 mm 0.00 in0.0 mm
08:40 AM 54.2°F12.3°C 36.0°F2.2°C 50% 4.1 mph SSW6.6 kmh SSW 9.0 mph14.5 kmh 29.74 in1007.1 mb 0.00 in0.0 mm 0.00 in0.0 mm 0.00 in0.0 mm
08:35 AM 54.0°F12.2°C 36.3°F2.4°C 51% 5.0 mph S8.0 kmh S 9.6 mph15.4 kmh 29.74 in1007.1 mb 0.00 in0.0 mm 0.00 in0.0 mm 0.00 in0.0 mm
08:30 AM 53.7°F12.1°C 36.0°F2.2°C 51% 3.0 mph SSW4.8 kmh SSW 6.2 mph10.0 kmh 29.74 in1007.1 mb 0.00 in0.0 mm 0.00 in0.0 mm 0.00 in0.0 mm
08:25 AM 53.7°F12.1°C 36.0°F2.2°C 51% 5.0 mph SSW8.0 kmh SSW 10.7 mph17.2 kmh 29.74 in1007.1 mb 0.00 in0.0 mm 0.00 in0.0 mm 0.00 in0.0 mm
08:20 AM 53.6°F12.0°C 35.9°F2.2°C 51% 4.1 mph S6.6 kmh S 7.8 mph12.6 kmh 29.74 in1007.1 mb 0.00 in0.0 mm 0.00 in0.0 mm 0.00 in0.0 mm
08:15 AM 53.6°F12.0°C 36.4°F2.4°C 52% 3.7 mph S6.0 kmh S 8.3 mph13.4 kmh 29.75 in1007.5 mb 0.00 in0.0 mm 0.00 in0.0 mm 0.00 in0.0 mm
08:10 AM 53.6°F12.0°C 36.4°F2.4°C 52% 4.9 mph S7.9 kmh S 10.0 mph16.1 kmh 29.75 in1007.5 mb 0.00 in0.0 mm 0.00 in0.0 mm 0.00 in0.0 mm
08:05 AM 53.6°F12.0°C 35.9°F2.2°C 51% 2.2 mph SSE3.5 kmh SSE 5.2 mph8.4 kmh 29.75 in1007.5 mb 0.00 in0.0 mm 0.00 in0.0 mm 0.00 in0.0 mm
08:00 AM 53.6°F12.0°C 35.9°F2.2°C 51% 5.5 mph S8.9 kmh S 8.9 mph14.3 kmh 29.75 in1007.5 mb 0.00 in0.0 mm 0.00 in0.0 mm 0.00 in0.0 mm
07:55 AM 53.6°F12.0°C 35.9°F2.2°C 51% 4.2 mph SSW6.8 kmh SSW 7.5 mph12.1 kmh 29.75 in1007.5 mb 0.00 in0.0 mm 0.00 in0.0 mm 0.00 in0.0 mm
07:50 AM 53.6°F12.0°C 35.9°F2.2°C 51% 4.3 mph SSW6.9 kmh SSW 8.6 mph13.8 kmh 29.75 in1007.5 mb 0.00 in0.0 mm 0.00 in0.0 mm 0.00 in0.0 mm
07:45 AM 53.6°F12.0°C 35.9°F2.2°C 51% 5.4 mph SSW8.7 kmh SSW 11.1 mph17.9 kmh 29.75 in1007.5 mb 0.00 in0.0 mm 0.00 in0.0 mm 0.00 in0.0 mm
07:40 AM 53.6°F12.0°C 35.4°F1.9°C 50% 4.6 mph SSW7.4 kmh SSW 9.2 mph14.8 kmh 29.75 in1007.5 mb 0.00 in0.0 mm 0.00 in0.0 mm 0.00 in0.0 mm
07:35 AM 53.6°F12.0°C 35.4°F1.9°C 50% 2.6 mph SW4.2 kmh SW 5.6 mph9.0 kmh 29.75 in1007.5 mb 0.00 in0.0 mm 0.00 in0.0 mm 0.00 in0.0 mm
07:30 AM 53.6°F12.0°C 35.4°F1.9°C 50% 5.8 mph S9.3 kmh S 9.5 mph15.3 kmh 29.75 in1007.5 mb 0.00 in0.0 mm 0.00 in0.0 mm 0.00 in0.0 mm
07:25 AM 53.7°F12.1°C 36.5°F2.5°C 52% 5.4 mph SSW8.7 kmh SSW 10.3 mph16.6 kmh 29.74 in1007.1 mb 0.00 in0.0 mm 0.00 in0.0 mm 0.00 in0.0 mm
07:20 AM 53.7°F12.1°C 36.5°F2.5°C 52% 5.3 mph S8.5 kmh S 10.5 mph16.9 kmh 29.75 in1007.5 mb 0.00 in0.0 mm 0.00 in0.0 mm 0.00 in0.0 mm
07:15 AM 53.7°F12.1°C 36.5°F2.5°C 52% 5.8 mph S9.3 kmh S 10.6 mph17.1 kmh 29.75 in1007.5 mb 0.00 in0.0 mm 0.00 in0.0 mm 0.00 in0.0 mm
07:10 AM 53.7°F12.1°C 36.5°F2.5°C 52% 6.3 mph S10.1 kmh S 11.2 mph18.0 kmh 29.75 in1007.5 mb 0.00 in0.0 mm 0.00 in0.0 mm 0.00 in0.0 mm
07:05 AM 53.9°F12.2°C 36.2°F2.3°C 51% 5.0 mph S8.0 kmh S 10.7 mph17.2 kmh 29.75 in1007.5 mb 0.00 in0.0 mm 0.00 in0.0 mm 0.00 in0.0 mm
07:00 AM 53.8°F12.1°C 36.6°F2.6°C 52% 6.4 mph SW10.3 kmh SW 12.2 mph19.6 kmh 29.75 in1007.5 mb 0.00 in0.0 mm 0.00 in0.0 mm 0.00 in0.0 mm
06:55 AM 53.9°F12.2°C 36.2°F2.3°C 51% 6.7 mph SSW10.8 kmh SSW 13.9 mph22.4 kmh 29.75 in1007.5 mb 0.00 in0.0 mm 0.00 in0.0 mm 0.00 in0.0 mm
06:50 AM 53.8°F12.1°C 36.6°F2.6°C 52% 3.9 mph S6.3 kmh S 8.2 mph13.2 kmh 29.75 in1007.5 mb 0.00 in0.0 mm 0.00 in0.0 mm 0.00 in0.0 mm
06:45 AM 53.8°F12.1°C 36.1°F2.3°C 51% 6.5 mph S10.5 kmh S 12.8 mph20.6 kmh 29.75 in1007.5 mb 0.00 in0.0 mm 0.00 in0.0 mm 0.00 in0.0 mm
06:40 AM 53.7°F12.1°C 36.0°F2.2°C 51% 5.8 mph S9.3 kmh S 11.2 mph18.0 kmh 29.75 in1007.5 mb 0.00 in0.0 mm 0.00 in0.0 mm 0.00 in0.0 mm
06:35 AM 53.8°F12.1°C 36.6°F2.6°C 52% 3.3 mph S5.3 kmh S 6.9 mph11.1 kmh 29.75 in1007.5 mb 0.00 in0.0 mm 0.00 in0.0 mm 0.00 in0.0 mm
06:30 AM 54.0°F12.2°C 36.3°F2.4°C 51% 5.0 mph SW8.0 kmh SW 10.0 mph16.1 kmh 29.75 in1007.5 mb 0.00 in0.0 mm 0.00 in0.0 mm 0.00 in0.0 mm
06:25 AM 54.1°F12.3°C 36.4°F2.4°C 51% 3.9 mph SW6.3 kmh SW 8.7 mph14.0 kmh 29.75 in1007.5 mb 0.00 in0.0 mm 0.00 in0.0 mm 0.00 in0.0 mm
06:20 AM 54.2°F12.3°C 36.5°F2.5°C 51% 6.4 mph S10.3 kmh S 11.1 mph17.9 kmh 29.75 in1007.5 mb 0.00 in0.0 mm 0.00 in0.0 mm 0.00 in0.0 mm
06:15 AM 54.2°F12.3°C 36.5°F2.5°C 51% 5.7 mph S9.2 kmh S 9.5 mph15.3 kmh 29.76 in1007.8 mb 0.00 in0.0 mm 0.00 in0.0 mm 0.00 in0.0 mm
06:10 AM 54.2°F12.3°C 36.5°F2.5°C 51% 5.0 mph S8.0 kmh S 9.7 mph15.6 kmh 29.76 in1007.8 mb 0.00 in0.0 mm 0.00 in0.0 mm 0.00 in0.0 mm
06:05 AM 54.3°F12.4°C 36.6°F2.6°C 51% 6.2 mph S10.0 kmh S 12.0 mph19.3 kmh 29.76 in1007.8 mb 0.00 in0.0 mm 0.00 in0.0 mm 0.00 in0.0 mm
06:00 AM 54.5°F12.5°C 36.2°F2.3°C 50% 4.7 mph SSW7.6 kmh SSW 9.4 mph15.1 kmh 29.76 in1007.8 mb 0.00 in0.0 mm 0.00 in0.0 mm 0.00 in0.0 mm
05:55 AM 54.6°F12.6°C 36.3°F2.4°C 50% 5.4 mph S8.7 kmh S 9.4 mph15.1 kmh 29.76 in1007.8 mb 0.00 in0.0 mm 0.00 in0.0 mm 0.00 in0.0 mm
05:50 AM 54.6°F12.6°C 35.8°F2.1°C 49% 5.9 mph SW9.5 kmh SW 14.3 mph23.0 kmh 29.76 in1007.8 mb 0.00 in0.0 mm 0.00 in0.0 mm 0.00 in0.0 mm
05:45 AM 54.3°F12.4°C 36.6°F2.6°C 51% 6.1 mph S9.8 kmh S 13.7 mph22.0 kmh 29.76 in1007.8 mb 0.00 in0.0 mm 0.00 in0.0 mm 0.00 in0.0 mm
05:40 AM 54.5°F12.5°C 36.7°F2.6°C 51% 6.5 mph S10.5 kmh S 11.6 mph18.7 kmh 29.76 in1007.8 mb 0.00 in0.0 mm 0.00 in0.0 mm 0.00 in0.0 mm
05:35 AM 54.6°F12.6°C 36.8°F2.7°C 51% 4.9 mph S7.9 kmh S 9.3 mph15.0 kmh 29.77 in1008.1 mb 0.00 in0.0 mm 0.00 in0.0 mm 0.00 in0.0 mm
05:30 AM 54.5°F12.5°C 36.2°F2.3°C 50% 7.3 mph S11.7 kmh S 13.6 mph21.9 kmh 29.77 in1008.1 mb 0.00 in0.0 mm 0.00 in0.0 mm 0.00 in0.0 mm
05:25 AM 54.5°F12.5°C 36.7°F2.6°C 51% 6.4 mph S10.3 kmh S 13.4 mph21.6 kmh 29.77 in1008.1 mb 0.00 in0.0 mm 0.00 in0.0 mm 0.00 in0.0 mm
05:20 AM 54.7°F12.6°C 36.9°F2.7°C 51% 5.8 mph S9.3 kmh S 11.0 mph17.7 kmh 29.77 in1008.1 mb 0.00 in0.0 mm 0.00 in0.0 mm 0.00 in0.0 mm
05:15 AM 55.1°F12.8°C 36.8°F2.7°C 50% 5.7 mph S9.2 kmh S 11.0 mph17.7 kmh 29.77 in1008.1 mb 0.00 in0.0 mm 0.00 in0.0 mm 0.00 in0.0 mm
05:10 AM 55.2°F12.9°C 36.9°F2.7°C 50% 6.0 mph S9.7 kmh S 12.1 mph19.5 kmh 29.78 in1008.5 mb 0.00 in0.0 mm 0.00 in0.0 mm 0.00 in0.0 mm
05:05 AM 55.3°F12.9°C 37.0°F2.8°C 50% 4.8 mph SW7.7 kmh SW 9.1 mph14.6 kmh 29.78 in1008.5 mb 0.00 in0.0 mm 0.00 in0.0 mm 0.00 in0.0 mm
05:00 AM 55.4°F13.0°C 36.6°F2.6°C 49% 7.5 mph S12.1 kmh S 14.8 mph23.8 kmh 29.78 in1008.5 mb 0.00 in0.0 mm 0.00 in0.0 mm 0.00 in0.0 mm
04:55 AM 55.4°F13.0°C 36.6°F2.6°C 49% 6.8 mph S10.9 kmh S 13.0 mph20.9 kmh 29.78 in1008.5 mb 0.00 in0.0 mm 0.00 in0.0 mm 0.00 in0.0 mm
04:50 AM 55.3°F12.9°C 36.5°F2.5°C 49% 5.7 mph S9.2 kmh S 11.8 mph19.0 kmh 29.78 in1008.5 mb 0.00 in0.0 mm 0.00 in0.0 mm 0.00 in0.0 mm
04:45 AM 55.4°F13.0°C 37.6°F3.1°C 51% 4.9 mph S7.9 kmh S 10.5 mph16.9 kmh 29.78 in1008.5 mb 0.00 in0.0 mm 0.00 in0.0 mm 0.00 in0.0 mm
04:40 AM 55.3°F12.9°C 37.5°F3.1°C 51% 7.9 mph S12.7 kmh S 14.3 mph23.0 kmh 29.78 in1008.5 mb 0.00 in0.0 mm 0.00 in0.0 mm 0.00 in0.0 mm
04:35 AM 55.1°F12.8°C 37.3°F2.9°C 51% 7.1 mph S11.4 kmh S 12.4 mph20.0 kmh 29.79 in1008.8 mb 0.00 in0.0 mm 0.00 in0.0 mm 0.00 in0.0 mm
04:30 AM 54.8°F12.7°C 38.0°F3.3°C 53% 6.3 mph SE10.1 kmh SE 10.6 mph17.1 kmh 29.79 in1008.8 mb 0.00 in0.0 mm 0.00 in0.0 mm 0.00 in0.0 mm
04:25 AM 54.7°F12.6°C 37.9°F3.3°C 53% 5.5 mph S8.9 kmh S 10.8 mph17.4 kmh 29.79 in1008.8 mb 0.00 in0.0 mm 0.00 in0.0 mm 0.00 in0.0 mm
04:20 AM 54.6°F12.6°C 37.8°F3.2°C 53% 5.4 mph S8.7 kmh S 9.5 mph15.3 kmh 29.79 in1008.8 mb 0.00 in0.0 mm 0.00 in0.0 mm 0.00 in0.0 mm
04:15 AM 54.4°F12.4°C 38.6°F3.7°C 55% 5.3 mph S8.5 kmh S 10.9 mph17.5 kmh 29.80 in1009.1 mb 0.00 in0.0 mm 0.00 in0.0 mm 0.00 in0.0 mm
04:10 AM 54.2°F12.3°C 38.8°F3.8°C 56% 5.5 mph S8.9 kmh S 9.6 mph15.4 kmh 29.80 in1009.1 mb 0.00 in0.0 mm 0.00 in0.0 mm 0.00 in0.0 mm
04:05 AM 54.0°F12.2°C 38.7°F3.7°C 56% 5.8 mph S9.3 kmh S 10.8 mph17.4 kmh 29.80 in1009.1 mb 0.00 in0.0 mm 0.00 in0.0 mm 0.00 in0.0 mm
04:00 AM 53.7°F12.1°C 38.8°F3.8°C 57% 5.7 mph SW9.2 kmh SW 10.8 mph17.4 kmh 29.81 in1009.5 mb 0.00 in0.0 mm 0.00 in0.0 mm 0.00 in0.0 mm
03:55 AM 53.6°F12.0°C 39.2°F4.0°C 58% 4.9 mph SSW7.9 kmh SSW 8.7 mph14.0 kmh 29.81 in1009.5 mb 0.00 in0.0 mm 0.00 in0.0 mm 0.00 in0.0 mm
03:50 AM 53.5°F11.9°C 39.1°F3.9°C 58% 5.3 mph S8.5 kmh S 10.4 mph16.7 kmh 29.81 in1009.5 mb 0.00 in0.0 mm 0.00 in0.0 mm 0.00 in0.0 mm
03:45 AM 53.5°F11.9°C 39.1°F3.9°C 58% 5.1 mph S8.2 kmh S 8.5 mph13.7 kmh 29.81 in1009.5 mb 0.00 in0.0 mm 0.00 in0.0 mm 0.00 in0.0 mm
03:40 AM 53.5°F11.9°C 39.1°F3.9°C 58% 4.9 mph SSE7.9 kmh SSE 9.5 mph15.3 kmh 29.81 in1009.5 mb 0.00 in0.0 mm 0.00 in0.0 mm 0.00 in0.0 mm
03:35 AM 53.7°F12.1°C 38.8°F3.8°C 57% 4.3 mph SW6.9 kmh SW 8.9 mph14.3 kmh 29.81 in1009.5 mb 0.00 in0.0 mm 0.00 in0.0 mm 0.00 in0.0 mm
03:30 AM 53.7°F12.1°C 39.3°F4.1°C 58% 4.9 mph SW7.9 kmh SW 8.4 mph13.5 kmh 29.82 in1009.8 mb 0.00 in0.0 mm 0.00 in0.0 mm 0.00 in0.0 mm
03:25 AM 53.7°F12.1°C 39.3°F4.1°C 58% 4.9 mph S7.9 kmh S 9.0 mph14.5 kmh 29.82 in1009.8 mb 0.00 in0.0 mm 0.00 in0.0 mm 0.00 in0.0 mm
03:20 AM 53.7°F12.1°C 39.3°F4.1°C 58% 4.7 mph SSW7.6 kmh SSW 9.3 mph15.0 kmh 29.82 in1009.8 mb 0.00 in0.0 mm 0.00 in0.0 mm 0.00 in0.0 mm
03:15 AM 53.7°F12.1°C 38.8°F3.8°C 57% 5.9 mph S9.5 kmh S 10.3 mph16.6 kmh 29.82 in1009.8 mb 0.00 in0.0 mm 0.00 in0.0 mm 0.00 in0.0 mm
03:10 AM 53.7°F12.1°C 38.4°F3.6°C 56% 4.7 mph S7.6 kmh S 10.8 mph17.4 kmh 29.83 in1010.2 mb 0.00 in0.0 mm 0.00 in0.0 mm 0.00 in0.0 mm
03:05 AM 53.8°F12.1°C 38.9°F3.8°C 57% 4.8 mph S7.7 kmh S 9.1 mph14.6 kmh 29.83 in1010.2 mb 0.00 in0.0 mm 0.00 in0.0 mm 0.00 in0.0 mm
03:00 AM 53.8°F12.1°C 38.5°F3.6°C 56% 4.3 mph SSW6.9 kmh SSW 9.5 mph15.3 kmh 29.83 in1010.2 mb 0.00 in0.0 mm 0.00 in0.0 mm 0.00 in0.0 mm
02:55 AM 53.9°F12.2°C 39.0°F3.9°C 57% 5.1 mph S8.2 kmh S 9.2 mph14.8 kmh 29.83 in1010.2 mb 0.00 in0.0 mm 0.00 in0.0 mm 0.00 in0.0 mm
02:50 AM 54.0°F12.2°C 38.7°F3.7°C 56% 4.7 mph S7.6 kmh S 8.1 mph13.0 kmh 29.83 in1010.2 mb 0.00 in0.0 mm 0.00 in0.0 mm 0.00 in0.0 mm
02:45 AM 54.2°F12.3°C 38.8°F3.8°C 56% 5.3 mph SSW8.5 kmh SSW 11.3 mph18.2 kmh 29.83 in1010.2 mb 0.00 in0.0 mm 0.00 in0.0 mm 0.00 in0.0 mm
02:40 AM 54.5°F12.5°C 38.7°F3.7°C 55% 5.9 mph SSW9.5 kmh SSW 11.8 mph19.0 kmh 29.83 in1010.2 mb 0.00 in0.0 mm 0.00 in0.0 mm 0.00 in0.0 mm
02:35 AM 54.6°F12.6°C 38.8°F3.8°C 55% 5.4 mph S8.7 kmh S 9.5 mph15.3 kmh 29.83 in1010.2 mb 0.00 in0.0 mm 0.00 in0.0 mm 0.00 in0.0 mm
02:30 AM 54.7°F12.6°C 38.9°F3.8°C 55% 5.5 mph SSW8.9 kmh SSW 9.3 mph15.0 kmh 29.83 in1010.2 mb 0.00 in0.0 mm 0.00 in0.0 mm 0.00 in0.0 mm
02:25 AM 54.8°F12.7°C 38.5°F3.6°C 54% 4.2 mph SSW6.8 kmh SSW 9.2 mph14.8 kmh 29.83 in1010.2 mb 0.00 in0.0 mm 0.00 in0.0 mm 0.00 in0.0 mm
02:20 AM 55.1°F12.8°C 38.8°F3.8°C 54% 5.0 mph SW8.0 kmh SW 9.8 mph15.8 kmh 29.84 in1010.5 mb 0.00 in0.0 mm 0.00 in0.0 mm 0.00 in0.0 mm
02:15 AM 55.2°F12.9°C 38.4°F3.6°C 53% 4.1 mph SSW6.6 kmh SSW 7.0 mph11.3 kmh 29.84 in1010.5 mb 0.00 in0.0 mm 0.00 in0.0 mm 0.00 in0.0 mm
02:10 AM 55.2°F12.9°C 38.4°F3.6°C 53% 5.4 mph SSW8.7 kmh SSW 10.3 mph16.6 kmh 29.84 in1010.5 mb 0.00 in0.0 mm 0.00 in0.0 mm 0.00 in0.0 mm
02:05 AM 55.3°F12.9°C 38.5°F3.6°C 53% 4.3 mph S6.9 kmh S 9.6 mph15.4 kmh 29.84 in1010.5 mb 0.00 in0.0 mm 0.00 in0.0 mm 0.00 in0.0 mm
02:00 AM 55.5°F13.1°C 38.7°F3.7°C 53% 5.7 mph SSW9.2 kmh SSW 10.8 mph17.4 kmh 29.84 in1010.5 mb 0.00 in0.0 mm 0.00 in0.0 mm 0.00 in0.0 mm
01:55 AM 55.5°F13.1°C 38.7°F3.7°C 53% 4.1 mph SSW6.6 kmh SSW 7.2 mph11.6 kmh 29.84 in1010.5 mb 0.00 in0.0 mm 0.00 in0.0 mm 0.00 in0.0 mm
01:50 AM 55.6°F13.1°C 38.7°F3.7°C 53% 4.7 mph S7.6 kmh S 8.0 mph12.9 kmh 29.84 in1010.5 mb 0.00 in0.0 mm 0.00 in0.0 mm 0.00 in0.0 mm
01:45 AM 55.7°F13.2°C 38.8°F3.8°C 53% 3.3 mph S5.3 kmh S 6.4 mph10.3 kmh 29.84 in1010.5 mb 0.00 in0.0 mm 0.00 in0.0 mm 0.00 in0.0 mm
01:40 AM 55.8°F13.2°C 38.4°F3.6°C 52% 5.3 mph SSW8.5 kmh SSW 10.5 mph16.9 kmh 29.84 in1010.5 mb 0.00 in0.0 mm 0.00 in0.0 mm 0.00 in0.0 mm
01:35 AM 56.0°F13.3°C 38.6°F3.7°C 52% 4.6 mph SSW7.4 kmh SSW 9.2 mph14.8 kmh 29.84 in1010.5 mb 0.00 in0.0 mm 0.00 in0.0 mm 0.00 in0.0 mm
01:30 AM 56.1°F13.4°C 38.7°F3.7°C 52% 4.9 mph SW7.9 kmh SW 9.7 mph15.6 kmh 29.84 in1010.5 mb 0.00 in0.0 mm 0.00 in0.0 mm 0.00 in0.0 mm
01:25 AM 56.2°F13.4°C 37.8°F3.2°C 50% 4.3 mph SSW6.9 kmh SSW 8.2 mph13.2 kmh 29.85 in1010.8 mb 0.00 in0.0 mm 0.00 in0.0 mm 0.00 in0.0 mm
01:20 AM 56.3°F13.5°C 38.4°F3.6°C 51% 5.2 mph S8.4 kmh S 9.7 mph15.6 kmh 29.85 in1010.8 mb 0.00 in0.0 mm 0.00 in0.0 mm 0.00 in0.0 mm
01:15 AM 56.5°F13.6°C 38.6°F3.7°C 51% 4.9 mph SSW7.9 kmh SSW 9.2 mph14.8 kmh 29.85 in1010.8 mb 0.00 in0.0 mm 0.00 in0.0 mm 0.00 in0.0 mm
01:10 AM 56.6°F13.7°C 38.2°F3.4°C 50% 4.8 mph S7.7 kmh S 9.1 mph14.6 kmh 29.85 in1010.8 mb 0.00 in0.0 mm 0.00 in0.0 mm 0.00 in0.0 mm
01:05 AM 56.7°F13.7°C 38.3°F3.5°C 50% 4.6 mph S7.4 kmh S 9.3 mph15.0 kmh 29.85 in1010.8 mb 0.00 in0.0 mm 0.00 in0.0 mm 0.00 in0.0 mm
01:00 AM 56.8°F13.8°C 37.8°F3.2°C 49% 3.3 mph SSE5.3 kmh SSE 6.7 mph10.8 kmh 29.85 in1010.8 mb 0.00 in0.0 mm 0.00 in0.0 mm 0.00 in0.0 mm
12:55 AM 57.1°F13.9°C 38.1°F3.4°C 49% 3.9 mph SSW6.3 kmh SSW 7.7 mph12.4 kmh 29.85 in1010.8 mb 0.00 in0.0 mm 0.00 in0.0 mm 0.00 in0.0 mm
12:50 AM 57.2°F14.0°C 37.7°F3.2°C 48% 5.2 mph SW8.4 kmh SW 9.2 mph14.8 kmh 29.86 in1011.2 mb 0.00 in0.0 mm 0.00 in0.0 mm 0.00 in0.0 mm
12:45 AM 57.3°F14.1°C 37.8°F3.2°C 48% 5.1 mph SW8.2 kmh SW 8.8 mph14.2 kmh 29.85 in1010.8 mb 0.00 in0.0 mm 0.00 in0.0 mm 0.00 in0.0 mm
12:40 AM 57.5°F14.2°C 36.9°F2.7°C 46% 6.3 mph S10.1 kmh S 12.0 mph19.3 kmh 29.86 in1011.2 mb 0.00 in0.0 mm 0.00 in0.0 mm 0.00 in0.0 mm
12:35 AM 57.7°F14.3°C 37.6°F3.1°C 47% 5.7 mph S9.2 kmh S 10.7 mph17.2 kmh 29.86 in1011.2 mb 0.00 in0.0 mm 0.00 in0.0 mm 0.00 in0.0 mm
12:30 AM 57.7°F14.3°C 37.6°F3.1°C 47% 4.5 mph SSW7.2 kmh SSW 8.2 mph13.2 kmh 29.86 in1011.2 mb 0.00 in0.0 mm 0.00 in0.0 mm 0.00 in0.0 mm
12:25 AM 57.8°F14.3°C 37.7°F3.2°C 47% 6.0 mph S9.7 kmh S 11.4 mph18.3 kmh 29.86 in1011.2 mb 0.00 in0.0 mm 0.00 in0.0 mm 0.00 in0.0 mm
12:20 AM 57.8°F14.3°C 37.7°F3.2°C 47% 4.6 mph SSE7.4 kmh SSE 8.2 mph13.2 kmh 29.86 in1011.2 mb 0.00 in0.0 mm 0.00 in0.0 mm 0.00 in0.0 mm
12:15 AM 57.8°F14.3°C 37.7°F3.2°C 47% 4.8 mph S7.7 kmh S 9.7 mph15.6 kmh 29.86 in1011.2 mb 0.00 in0.0 mm 0.00 in0.0 mm 0.00 in0.0 mm
12:10 AM 58.0°F14.4°C 37.9°F3.3°C 47% 4.5 mph SW7.2 kmh SW 9.4 mph15.1 kmh 29.86 in1011.2 mb 0.00 in0.0 mm 0.00 in0.0 mm 0.00 in0.0 mm
12:05 AM 57.8°F14.3°C 37.7°F3.2°C 47% 4.4 mph SSE7.1 kmh SSE 6.9 mph11.1 kmh 29.87 in1011.5 mb 0.00 in0.0 mm 0.00 in0.0 mm 0.00 in0.0 mm